sensor_id;sensor_type;location;lat;lon;timestamp;temperature;humidity
2957;DHT22;1488;51.548;7.222;2023-08-07T00:00:54;23.70;97.00
2957;DHT22;1488;51.548;7.222;2023-08-07T00:03:52;23.70;97.00
2957;DHT22;1488;51.548;7.222;2023-08-07T00:06:19;23.70;96.90
2957;DHT22;1488;51.548;7.222;2023-08-07T00:09:12;23.80;97.00
2957;DHT22;1488;51.548;7.222;2023-08-07T00:11:48;23.70;96.90
2957;DHT22;1488;51.548;7.222;2023-08-07T00:14:24;23.70;96.80
2957;DHT22;1488;51.548;7.222;2023-08-07T00:19:19;23.70;96.90
2957;DHT22;1488;51.548;7.222;2023-08-07T00:21:51;23.70;96.90
2957;DHT22;1488;51.548;7.222;2023-08-07T00:29:34;23.70;96.90
2957;DHT22;1488;51.548;7.222;2023-08-07T00:32:10;23.90;97.10
2957;DHT22;1488;51.548;7.222;2023-08-07T00:34:42;23.70;96.90
2957;DHT22;1488;51.548;7.222;2023-08-07T00:37:08;23.70;97.00
2957;DHT22;1488;51.548;7.222;2023-08-07T00:39:41;23.80;97.00
2957;DHT22;1488;51.548;7.222;2023-08-07T00:42:11;23.70;97.00
2957;DHT22;1488;51.548;7.222;2023-08-07T00:44:39;23.70;97.40
2957;DHT22;1488;51.548;7.222;2023-08-07T00:47:10;23.70;97.00
2957;DHT22;1488;51.548;7.222;2023-08-07T00:49:58;23.70;97.00
2957;DHT22;1488;51.548;7.222;2023-08-07T00:52:28;23.80;97.00
2957;DHT22;1488;51.548;7.222;2023-08-07T00:55:02;23.70;96.90
2957;DHT22;1488;51.548;7.222;2023-08-07T00:58:02;23.70;97.00
2957;DHT22;1488;51.548;7.222;2023-08-07T01:00:29;23.70;96.90
2957;DHT22;1488;51.548;7.222;2023-08-07T01:02:57;23.70;97.00
2957;DHT22;1488;51.548;7.222;2023-08-07T01:05:29;23.70;96.90
2957;DHT22;1488;51.548;7.222;2023-08-07T01:07:56;23.70;96.90
2957;DHT22;1488;51.548;7.222;2023-08-07T01:10:33;23.70;96.90
2957;DHT22;1488;51.548;7.222;2023-08-07T01:13:10;23.70;96.90
2957;DHT22;1488;51.548;7.222;2023-08-07T01:15:40;23.70;96.90
2957;DHT22;1488;51.548;7.222;2023-08-07T01:18:08;23.70;97.30
2957;DHT22;1488;51.548;7.222;2023-08-07T01:20:39;23.70;96.90
2957;DHT22;1488;51.548;7.222;2023-08-07T01:23:11;23.70;97.00
2957;DHT22;1488;51.548;7.222;2023-08-07T01:25:39;23.70;96.90
2957;DHT22;1488;51.548;7.222;2023-08-07T01:28:12;23.70;97.00
2957;DHT22;1488;51.548;7.222;2023-08-07T01:30:45;23.70;96.90
2957;DHT22;1488;51.548;7.222;2023-08-07T01:33:19;23.70;96.90
2957;DHT22;1488;51.548;7.222;2023-08-07T01:36:05;23.70;97.00
2957;DHT22;1488;51.548;7.222;2023-08-07T01:38:47;23.70;97.00
2957;DHT22;1488;51.548;7.222;2023-08-07T01:41:16;23.70;96.90
2957;DHT22;1488;51.548;7.222;2023-08-07T01:43:58;23.60;96.90
2957;DHT22;1488;51.548;7.222;2023-08-07T01:46:26;23.60;97.00
2957;DHT22;1488;51.548;7.222;2023-08-07T01:48:53;23.60;96.90
2957;DHT22;1488;51.548;7.222;2023-08-07T01:51:20;23.60;97.00
2957;DHT22;1488;51.548;7.222;2023-08-07T01:53:55;23.70;96.90
2957;DHT22;1488;51.548;7.222;2023-08-07T01:56:22;23.60;96.90
2957;DHT22;1488;51.548;7.222;2023-08-07T02:01:17;23.70;96.90
2957;DHT22;1488;51.548;7.222;2023-08-07T02:03:55;23.60;96.90
2957;DHT22;1488;51.548;7.222;2023-08-07T02:06:31;23.60;96.80
2957;DHT22;1488;51.548;7.222;2023-08-07T02:09:00;23.70;96.90
2957;DHT22;1488;51.548;7.222;2023-08-07T02:11:45;23.60;96.80
2957;DHT22;1488;51.548;7.222;2023-08-07T02:14:14;23.70;96.90
2957;DHT22;1488;51.548;7.222;2023-08-07T02:17:08;23.60;96.80
2957;DHT22;1488;51.548;7.222;2023-08-07T02:19:38;23.60;96.80
2957;DHT22;1488;51.548;7.222;2023-08-07T02:22:09;23.60;96.90
2957;DHT22;1488;51.548;7.222;2023-08-07T02:24:39;23.60;96.90
2957;DHT22;1488;51.548;7.222;2023-08-07T02:27:09;23.60;96.80
2957;DHT22;1488;51.548;7.222;2023-08-07T02:29:35;23.60;96.90
2957;DHT22;1488;51.548;7.222;2023-08-07T02:42:57;23.60;96.90
2957;DHT22;1488;51.548;7.222;2023-08-07T02:48:00;23.60;96.90
2957;DHT22;1488;51.548;7.222;2023-08-07T02:50:41;23.60;96.90
2957;DHT22;1488;51.548;7.222;2023-08-07T02:53:09;23.60;96.90
2957;DHT22;1488;51.548;7.222;2023-08-07T02:55:36;23.60;96.90
2957;DHT22;1488;51.548;7.222;2023-08-07T02:58:05;23.60;96.80
2957;DHT22;1488;51.548;7.222;2023-08-07T03:00:36;23.60;97.20
2957;DHT22;1488;51.548;7.222;2023-08-07T03:03:25;23.60;96.70
2957;DHT22;1488;51.548;7.222;2023-08-07T03:05:53;23.60;96.70
2957;DHT22;1488;51.548;7.222;2023-08-07T03:08:24;23.60;96.80
2957;DHT22;1488;51.548;7.222;2023-08-07T03:10:52;23.60;97.30
2957;DHT22;1488;51.548;7.222;2023-08-07T03:13:23;23.60;96.90
2957;DHT22;1488;51.548;7.222;2023-08-07T03:18:20;23.60;96.80
2957;DHT22;1488;51.548;7.222;2023-08-07T03:20:47;23.60;96.90
2957;DHT22;1488;51.548;7.222;2023-08-07T03:23:44;23.60;96.80
2957;DHT22;1488;51.548;7.222;2023-08-07T03:26:16;23.60;96.80
2957;DHT22;1488;51.548;7.222;2023-08-07T03:28:50;23.60;96.90
2957;DHT22;1488;51.548;7.222;2023-08-07T03:31:23;23.60;96.80
2957;DHT22;1488;51.548;7.222;2023-08-07T03:33:53;23.60;96.80
2957;DHT22;1488;51.548;7.222;2023-08-07T03:36:22;23.80;96.90
2957;DHT22;1488;51.548;7.222;2023-08-07T03:38:49;23.60;96.80
2957;DHT22;1488;51.548;7.222;2023-08-07T03:41:24;23.60;96.80
2957;DHT22;1488;51.548;7.222;2023-08-07T03:46:30;23.60;96.90
2957;DHT22;1488;51.548;7.222;2023-08-07T03:49:05;23.60;96.80
2957;DHT22;1488;51.548;7.222;2023-08-07T03:51:32;23.50;96.80
2957;DHT22;1488;51.548;7.222;2023-08-07T03:54:00;23.60;96.80
2957;DHT22;1488;51.548;7.222;2023-08-07T03:56:33;23.50;96.80
2957;DHT22;1488;51.548;7.222;2023-08-07T03:59:03;23.50;97.10
2957;DHT22;1488;51.548;7.222;2023-08-07T04:01:36;23.60;96.80
2957;DHT22;1488;51.548;7.222;2023-08-07T04:04:03;23.60;96.80
2957;DHT22;1488;51.548;7.222;2023-08-07T04:06:30;23.50;96.80
2957;DHT22;1488;51.548;7.222;2023-08-07T04:11:27;23.50;96.80
2957;DHT22;1488;51.548;7.222;2023-08-07T04:13:58;23.50;96.80
2957;DHT22;1488;51.548;7.222;2023-08-07T04:16:25;23.60;96.70
2957;DHT22;1488;51.548;7.222;2023-08-07T04:18:55;23.60;96.80
2957;DHT22;1488;51.548;7.222;2023-08-07T04:21:31;23.50;96.70
2957;DHT22;1488;51.548;7.222;2023-08-07T04:24:01;23.50;96.80
2957;DHT22;1488;51.548;7.222;2023-08-07T04:26:36;23.70;96.80
2957;DHT22;1488;51.548;7.222;2023-08-07T04:31:46;23.50;96.80
2957;DHT22;1488;51.548;7.222;2023-08-07T04:34:20;23.50;97.10
2957;DHT22;1488;51.548;7.222;2023-08-07T04:36:47;23.50;96.60
2957;DHT22;1488;51.548;7.222;2023-08-07T04:39:22;23.50;96.60
2957;DHT22;1488;51.548;7.222;2023-08-07T04:44:19;23.50;96.70
2957;DHT22;1488;51.548;7.222;2023-08-07T04:47:01;23.50;96.60
2957;DHT22;1488;51.548;7.222;2023-08-07T04:49:31;23.50;96.70
2957;DHT22;1488;51.548;7.222;2023-08-07T04:52:06;23.50;96.70
2957;DHT22;1488;51.548;7.222;2023-08-07T04:54:42;23.50;96.60
2957;DHT22;1488;51.548;7.222;2023-08-07T04:57:12;23.50;96.70
2957;DHT22;1488;51.548;7.222;2023-08-07T04:59:52;23.50;96.60
2957;DHT22;1488;51.548;7.222;2023-08-07T05:02:21;23.50;96.60
2957;DHT22;1488;51.548;7.222;2023-08-07T05:04:53;23.50;96.70
2957;DHT22;1488;51.548;7.222;2023-08-07T05:07:27;23.50;96.80
2957;DHT22;1488;51.548;7.222;2023-08-07T05:09:58;23.50;96.70
2957;DHT22;1488;51.548;7.222;2023-08-07T05:12:26;23.50;96.70
2957;DHT22;1488;51.548;7.222;2023-08-07T05:15:11;23.50;96.70
2957;DHT22;1488;51.548;7.222;2023-08-07T05:17:41;23.50;96.70
2957;DHT22;1488;51.548;7.222;2023-08-07T05:20:15;23.50;96.70
2957;DHT22;1488;51.548;7.222;2023-08-07T05:22:43;23.50;96.70
2957;DHT22;1488;51.548;7.222;2023-08-07T05:25:13;23.50;96.70
2957;DHT22;1488;51.548;7.222;2023-08-07T05:27:42;23.50;96.70
2957;DHT22;1488;51.548;7.222;2023-08-07T05:30:13;23.50;96.60
2957;DHT22;1488;51.548;7.222;2023-08-07T05:32:40;23.50;96.70
2957;DHT22;1488;51.548;7.222;2023-08-07T05:35:08;23.50;96.70
2957;DHT22;1488;51.548;7.222;2023-08-07T05:37:39;23.50;96.60
2957;DHT22;1488;51.548;7.222;2023-08-07T05:40:09;23.40;96.60
2957;DHT22;1488;51.548;7.222;2023-08-07T05:42:39;23.50;96.70
2957;DHT22;1488;51.548;7.222;2023-08-07T05:45:10;23.50;96.70
2957;DHT22;1488;51.548;7.222;2023-08-07T05:47:37;23.50;96.70
2957;DHT22;1488;51.548;7.222;2023-08-07T05:50:10;23.50;96.70
2957;DHT22;1488;51.548;7.222;2023-08-07T05:52:40;23.40;96.70
2957;DHT22;1488;51.548;7.222;2023-08-07T05:55:14;23.40;96.70
2957;DHT22;1488;51.548;7.222;2023-08-07T05:57:41;23.50;96.70
2957;DHT22;1488;51.548;7.222;2023-08-07T06:00:24;23.40;96.60
2957;DHT22;1488;51.548;7.222;2023-08-07T06:05:32;23.40;96.60
2957;DHT22;1488;51.548;7.222;2023-08-07T06:08:21;23.40;97.00
2957;DHT22;1488;51.548;7.222;2023-08-07T06:13:15;23.50;96.60
2957;DHT22;1488;51.548;7.222;2023-08-07T06:15:47;23.40;96.50
2957;DHT22;1488;51.548;7.222;2023-08-07T06:18:20;23.50;96.50
2957;DHT22;1488;51.548;7.222;2023-08-07T06:20:46;23.40;96.50
2957;DHT22;1488;51.548;7.222;2023-08-07T06:23:13;23.40;96.50
2957;DHT22;1488;51.548;7.222;2023-08-07T06:25:41;23.40;96.60
2957;DHT22;1488;51.548;7.222;2023-08-07T06:28:09;23.40;96.50
2957;DHT22;1488;51.548;7.222;2023-08-07T06:30:36;23.40;96.20
2957;DHT22;1488;51.548;7.222;2023-08-07T06:33:02;23.40;96.40
2957;DHT22;1488;51.548;7.222;2023-08-07T06:35:29;23.40;96.50
2957;DHT22;1488;51.548;7.222;2023-08-07T06:37:56;23.40;96.50
2957;DHT22;1488;51.548;7.222;2023-08-07T06:40:23;23.40;96.50
2957;DHT22;1488;51.548;7.222;2023-08-07T06:42:51;23.40;96.50
2957;DHT22;1488;51.548;7.222;2023-08-07T06:45:22;23.50;96.60
2957;DHT22;1488;51.548;7.222;2023-08-07T06:47:49;23.50;96.60
2957;DHT22;1488;51.548;7.222;2023-08-07T06:50:16;23.40;96.60
2957;DHT22;1488;51.548;7.222;2023-08-07T06:52:43;23.50;96.60
2957;DHT22;1488;51.548;7.222;2023-08-07T06:55:10;23.50;96.80
2957;DHT22;1488;51.548;7.222;2023-08-07T06:57:36;23.50;96.70
2957;DHT22;1488;51.548;7.222;2023-08-07T07:00:06;23.50;96.70
2957;DHT22;1488;51.548;7.222;2023-08-07T07:02:33;23.50;96.70
2957;DHT22;1488;51.548;7.222;2023-08-07T07:05:00;23.50;96.70
2957;DHT22;1488;51.548;7.222;2023-08-07T07:07:27;23.50;96.70
2957;DHT22;1488;51.548;7.222;2023-08-07T07:09:53;23.50;96.70
2957;DHT22;1488;51.548;7.222;2023-08-07T07:12:20;23.50;96.80
2957;DHT22;1488;51.548;7.222;2023-08-07T07:14:47;23.50;96.80
2957;DHT22;1488;51.548;7.222;2023-08-07T07:17:15;23.50;96.80
2957;DHT22;1488;51.548;7.222;2023-08-07T07:19:42;23.50;96.70
2957;DHT22;1488;51.548;7.222;2023-08-07T07:22:09;23.50;96.80
2957;DHT22;1488;51.548;7.222;2023-08-07T07:24:36;23.50;96.80
2957;DHT22;1488;51.548;7.222;2023-08-07T07:27:03;23.50;96.60
2957;DHT22;1488;51.548;7.222;2023-08-07T07:29:36;23.50;96.70
2957;DHT22;1488;51.548;7.222;2023-08-07T07:32:22;23.50;96.70
2957;DHT22;1488;51.548;7.222;2023-08-07T07:34:49;23.50;96.60
2957;DHT22;1488;51.548;7.222;2023-08-07T07:37:15;23.50;96.70
2957;DHT22;1488;51.548;7.222;2023-08-07T07:39:42;23.50;96.70
2957;DHT22;1488;51.548;7.222;2023-08-07T07:42:09;23.40;96.70
2957;DHT22;1488;51.548;7.222;2023-08-07T07:44:36;23.40;96.70
2957;DHT22;1488;51.548;7.222;2023-08-07T07:47:04;23.50;96.30
2957;DHT22;1488;51.548;7.222;2023-08-07T07:49:33;23.40;96.00
2957;DHT22;1488;51.548;7.222;2023-08-07T07:52:00;23.40;95.90
2957;DHT22;1488;51.548;7.222;2023-08-07T07:54:28;23.30;95.80
2957;DHT22;1488;51.548;7.222;2023-08-07T07:56:55;23.30;95.90
2957;DHT22;1488;51.548;7.222;2023-08-07T07:59:21;23.20;96.00
2957;DHT22;1488;51.548;7.222;2023-08-07T08:01:48;23.10;95.90
2957;DHT22;1488;51.548;7.222;2023-08-07T08:04:16;23.10;96.00
2957;DHT22;1488;51.548;7.222;2023-08-07T08:06:46;23.10;96.10
2957;DHT22;1488;51.548;7.222;2023-08-07T08:09:13;23.10;96.20
2957;DHT22;1488;51.548;7.222;2023-08-07T08:11:41;23.10;96.30
2957;DHT22;1488;51.548;7.222;2023-08-07T08:14:07;23.10;96.50
2957;DHT22;1488;51.548;7.222;2023-08-07T08:16:34;23.10;96.60
2957;DHT22;1488;51.548;7.222;2023-08-07T08:19:01;23.20;96.70
2957;DHT22;1488;51.548;7.222;2023-08-07T08:21:28;23.20;96.80
2957;DHT22;1488;51.548;7.222;2023-08-07T08:23:57;23.20;96.80
2957;DHT22;1488;51.548;7.222;2023-08-07T08:26:24;23.20;96.70
2957;DHT22;1488;51.548;7.222;2023-08-07T08:28:51;23.20;97.20
2957;DHT22;1488;51.548;7.222;2023-08-07T08:31:18;23.20;96.80
2957;DHT22;1488;51.548;7.222;2023-08-07T08:33:46;23.20;96.80
2957;DHT22;1488;51.548;7.222;2023-08-07T08:36:13;23.20;96.90
2957;DHT22;1488;51.548;7.222;2023-08-07T08:38:40;23.30;97.10
2957;DHT22;1488;51.548;7.222;2023-08-07T08:41:09;23.30;96.90
2957;DHT22;1488;51.548;7.222;2023-08-07T08:43:36;23.30;96.90
2957;DHT22;1488;51.548;7.222;2023-08-07T08:46:05;23.30;96.80
2957;DHT22;1488;51.548;7.222;2023-08-07T08:48:34;23.30;96.90
2957;DHT22;1488;51.548;7.222;2023-08-07T08:51:02;23.30;96.90
2957;DHT22;1488;51.548;7.222;2023-08-07T08:53:30;23.30;96.80
2957;DHT22;1488;51.548;7.222;2023-08-07T08:55:57;23.30;96.90
2957;DHT22;1488;51.548;7.222;2023-08-07T08:58:25;23.40;97.00
2957;DHT22;1488;51.548;7.222;2023-08-07T09:00:52;23.40;97.00
2957;DHT22;1488;51.548;7.222;2023-08-07T09:03:19;23.40;97.00
2957;DHT22;1488;51.548;7.222;2023-08-07T09:05:47;23.40;97.00
2957;DHT22;1488;51.548;7.222;2023-08-07T09:08:15;23.40;97.00
2957;DHT22;1488;51.548;7.222;2023-08-07T09:10:43;23.40;97.00
2957;DHT22;1488;51.548;7.222;2023-08-07T09:13:14;23.40;97.00
2957;DHT22;1488;51.548;7.222;2023-08-07T09:15:43;23.50;96.90
2957;DHT22;1488;51.548;7.222;2023-08-07T09:18:13;23.50;96.90
2957;DHT22;1488;51.548;7.222;2023-08-07T09:20:40;23.50;96.90
2957;DHT22;1488;51.548;7.222;2023-08-07T09:23:07;23.50;96.90
2957;DHT22;1488;51.548;7.222;2023-08-07T09:25:34;23.50;96.90
2957;DHT22;1488;51.548;7.222;2023-08-07T09:28:02;23.50;96.90
2957;DHT22;1488;51.548;7.222;2023-08-07T09:30:31;23.50;96.90
2957;DHT22;1488;51.548;7.222;2023-08-07T09:32:59;23.70;97.00
2957;DHT22;1488;51.548;7.222;2023-08-07T09:35:27;23.50;97.00
2957;DHT22;1488;51.548;7.222;2023-08-07T09:37:54;23.50;96.90
2957;DHT22;1488;51.548;7.222;2023-08-07T09:40:21;23.60;97.00
2957;DHT22;1488;51.548;7.222;2023-08-07T09:42:50;23.60;97.00
2957;DHT22;1488;51.548;7.222;2023-08-07T09:45:22;23.60;97.20
2957;DHT22;1488;51.548;7.222;2023-08-07T09:48:01;23.60;97.00
2957;DHT22;1488;51.548;7.222;2023-08-07T09:50:30;23.60;96.80
2957;DHT22;1488;51.548;7.222;2023-08-07T09:53:00;23.60;96.80
2957;DHT22;1488;51.548;7.222;2023-08-07T09:55:27;23.60;97.00
2957;DHT22;1488;51.548;7.222;2023-08-07T09:57:54;23.60;97.00
2957;DHT22;1488;51.548;7.222;2023-08-07T10:00:21;23.60;96.90
2957;DHT22;1488;51.548;7.222;2023-08-07T10:02:49;23.60;97.00
2957;DHT22;1488;51.548;7.222;2023-08-07T10:05:17;23.60;97.00
2957;DHT22;1488;51.548;7.222;2023-08-07T10:07:48;23.70;97.00
2957;DHT22;1488;51.548;7.222;2023-08-07T10:10:16;23.70;97.00
2957;DHT22;1488;51.548;7.222;2023-08-07T10:12:43;23.60;96.90
2957;DHT22;1488;51.548;7.222;2023-08-07T10:15:13;23.60;97.00
2957;DHT22;1488;51.548;7.222;2023-08-07T10:17:41;23.60;97.00
2957;DHT22;1488;51.548;7.222;2023-08-07T10:20:09;23.70;97.10
2957;DHT22;1488;51.548;7.222;2023-08-07T10:22:38;23.70;97.10
2957;DHT22;1488;51.548;7.222;2023-08-07T10:25:06;23.70;97.10
2957;DHT22;1488;51.548;7.222;2023-08-07T10:27:36;23.70;97.00
2957;DHT22;1488;51.548;7.222;2023-08-07T10:30:06;23.70;97.10
2957;DHT22;1488;51.548;7.222;2023-08-07T10:32:34;23.80;97.10
2957;DHT22;1488;51.548;7.222;2023-08-07T10:35:03;23.80;97.10
2957;DHT22;1488;51.548;7.222;2023-08-07T10:37:40;23.80;97.20
2957;DHT22;1488;51.548;7.222;2023-08-07T10:40:08;23.80;97.10
2957;DHT22;1488;51.548;7.222;2023-08-07T10:42:55;23.80;97.00
2957;DHT22;1488;51.548;7.222;2023-08-07T10:45:23;23.80;97.00
2957;DHT22;1488;51.548;7.222;2023-08-07T10:48:06;23.80;97.00
2957;DHT22;1488;51.548;7.222;2023-08-07T10:50:34;23.90;97.00
2957;DHT22;1488;51.548;7.222;2023-08-07T10:53:03;23.90;97.10
2957;DHT22;1488;51.548;7.222;2023-08-07T10:55:43;23.90;97.00
2957;DHT22;1488;51.548;7.222;2023-08-07T10:58:22;23.90;97.10
2957;DHT22;1488;51.548;7.222;2023-08-07T11:00:49;23.90;97.00
2957;DHT22;1488;51.548;7.222;2023-08-07T11:03:25;24.00;97.10
2957;DHT22;1488;51.548;7.222;2023-08-07T11:05:52;23.90;97.10
2957;DHT22;1488;51.548;7.222;2023-08-07T11:08:23;24.00;97.10
2957;DHT22;1488;51.548;7.222;2023-08-07T11:10:51;24.00;97.10
2957;DHT22;1488;51.548;7.222;2023-08-07T11:13:18;24.00;97.20
2957;DHT22;1488;51.548;7.222;2023-08-07T11:15:46;24.00;97.10
2957;DHT22;1488;51.548;7.222;2023-08-07T11:18:12;24.00;97.10
2957;DHT22;1488;51.548;7.222;2023-08-07T11:20:42;24.00;97.00
2957;DHT22;1488;51.548;7.222;2023-08-07T11:23:09;24.10;97.10
2957;DHT22;1488;51.548;7.222;2023-08-07T11:25:37;24.00;97.00
2957;DHT22;1488;51.548;7.222;2023-08-07T11:28:04;24.10;97.20
2957;DHT22;1488;51.548;7.222;2023-08-07T11:30:31;24.10;97.10
2957;DHT22;1488;51.548;7.222;2023-08-07T11:32:58;24.10;97.10
2957;DHT22;1488;51.548;7.222;2023-08-07T11:35:25;24.10;97.00
2957;DHT22;1488;51.548;7.222;2023-08-07T11:37:52;24.10;97.00
2957;DHT22;1488;51.548;7.222;2023-08-07T11:40:20;24.10;97.10
2957;DHT22;1488;51.548;7.222;2023-08-07T11:42:48;24.10;97.10
2957;DHT22;1488;51.548;7.222;2023-08-07T11:45:15;24.10;97.00
2957;DHT22;1488;51.548;7.222;2023-08-07T11:47:41;24.10;97.10
2957;DHT22;1488;51.548;7.222;2023-08-07T11:50:10;24.10;97.10
2957;DHT22;1488;51.548;7.222;2023-08-07T11:52:36;24.10;97.10
2957;DHT22;1488;51.548;7.222;2023-08-07T11:55:06;24.10;97.00
2957;DHT22;1488;51.548;7.222;2023-08-07T11:57:37;24.10;97.00
2957;DHT22;1488;51.548;7.222;2023-08-07T12:00:08;24.10;97.00
2957;DHT22;1488;51.548;7.222;2023-08-07T12:02:41;24.10;97.00
2957;DHT22;1488;51.548;7.222;2023-08-07T12:05:08;24.10;97.00
2957;DHT22;1488;51.548;7.222;2023-08-07T12:07:36;24.10;96.90
2957;DHT22;1488;51.548;7.222;2023-08-07T12:10:03;24.10;97.00
2957;DHT22;1488;51.548;7.222;2023-08-07T12:12:33;24.10;96.90
2957;DHT22;1488;51.548;7.222;2023-08-07T12:15:00;24.10;96.90
2957;DHT22;1488;51.548;7.222;2023-08-07T12:17:31;24.10;97.00
2957;DHT22;1488;51.548;7.222;2023-08-07T12:19:59;24.00;96.80
2957;DHT22;1488;51.548;7.222;2023-08-07T12:22:27;24.00;96.80
2957;DHT22;1488;51.548;7.222;2023-08-07T12:24:54;24.10;96.90
2957;DHT22;1488;51.548;7.222;2023-08-07T12:27:21;24.10;96.90
2957;DHT22;1488;51.548;7.222;2023-08-07T12:29:48;24.10;96.90
2957;DHT22;1488;51.548;7.222;2023-08-07T12:32:15;24.10;97.00
2957;DHT22;1488;51.548;7.222;2023-08-07T12:34:43;24.10;96.90
2957;DHT22;1488;51.548;7.222;2023-08-07T12:37:10;24.10;96.80
2957;DHT22;1488;51.548;7.222;2023-08-07T12:39:36;24.10;97.20
2957;DHT22;1488;51.548;7.222;2023-08-07T12:42:03;24.10;97.00
2957;DHT22;1488;51.548;7.222;2023-08-07T12:44:31;24.10;97.10
2957;DHT22;1488;51.548;7.222;2023-08-07T12:46:58;24.10;97.10
2957;DHT22;1488;51.548;7.222;2023-08-07T12:49:25;24.10;97.10
2957;DHT22;1488;51.548;7.222;2023-08-07T12:51:53;24.10;97.00
2957;DHT22;1488;51.548;7.222;2023-08-07T12:54:22;24.10;97.10
2957;DHT22;1488;51.548;7.222;2023-08-07T12:56:48;24.10;97.20
2957;DHT22;1488;51.548;7.222;2023-08-07T12:59:16;24.20;97.30
2957;DHT22;1488;51.548;7.222;2023-08-07T13:01:43;24.20;97.20
2957;DHT22;1488;51.548;7.222;2023-08-07T13:04:09;24.20;97.10
2957;DHT22;1488;51.548;7.222;2023-08-07T13:06:39;24.20;97.10
2957;DHT22;1488;51.548;7.222;2023-08-07T13:09:08;24.20;97.20
2957;DHT22;1488;51.548;7.222;2023-08-07T13:11:34;24.20;97.10
2957;DHT22;1488;51.548;7.222;2023-08-07T13:14:01;24.20;97.10
2957;DHT22;1488;51.548;7.222;2023-08-07T13:16:30;24.20;97.00
2957;DHT22;1488;51.548;7.222;2023-08-07T13:18:57;24.20;96.90
2957;DHT22;1488;51.548;7.222;2023-08-07T13:21:24;24.10;96.80
2957;DHT22;1488;51.548;7.222;2023-08-07T13:23:51;24.10;97.00
2957;DHT22;1488;51.548;7.222;2023-08-07T13:26:19;24.10;97.30
2957;DHT22;1488;51.548;7.222;2023-08-07T13:28:46;24.20;96.90
2957;DHT22;1488;51.548;7.222;2023-08-07T13:31:12;24.20;96.80
2957;DHT22;1488;51.548;7.222;2023-08-07T13:33:39;24.20;96.90
2957;DHT22;1488;51.548;7.222;2023-08-07T13:36:06;24.20;97.00
2957;DHT22;1488;51.548;7.222;2023-08-07T13:38:35;24.20;96.90
2957;DHT22;1488;51.548;7.222;2023-08-07T13:41:04;24.20;96.90
2957;DHT22;1488;51.548;7.222;2023-08-07T13:43:32;24.20;96.90
2957;DHT22;1488;51.548;7.222;2023-08-07T13:45:59;24.20;96.80
2957;DHT22;1488;51.548;7.222;2023-08-07T13:48:27;24.10;96.80
2957;DHT22;1488;51.548;7.222;2023-08-07T13:50:54;24.10;96.80
2957;DHT22;1488;51.548;7.222;2023-08-07T13:53:21;24.10;96.70
2957;DHT22;1488;51.548;7.222;2023-08-07T13:55:49;24.10;96.70
2957;DHT22;1488;51.548;7.222;2023-08-07T13:58:18;24.10;96.70
2957;DHT22;1488;51.548;7.222;2023-08-07T14:00:47;24.10;96.80
2957;DHT22;1488;51.548;7.222;2023-08-07T14:03:14;24.10;96.70
2957;DHT22;1488;51.548;7.222;2023-08-07T14:05:41;24.10;96.70
2957;DHT22;1488;51.548;7.222;2023-08-07T14:08:08;24.10;96.70
2957;DHT22;1488;51.548;7.222;2023-08-07T14:10:38;24.10;96.70
2957;DHT22;1488;51.548;7.222;2023-08-07T14:13:06;24.10;96.60
2957;DHT22;1488;51.548;7.222;2023-08-07T14:15:33;24.00;96.60
2957;DHT22;1488;51.548;7.222;2023-08-07T14:18:01;24.00;96.60
2957;DHT22;1488;51.548;7.222;2023-08-07T14:20:29;24.00;96.60
2957;DHT22;1488;51.548;7.222;2023-08-07T14:22:55;24.00;96.60
2957;DHT22;1488;51.548;7.222;2023-08-07T14:25:22;24.00;96.60
2957;DHT22;1488;51.548;7.222;2023-08-07T14:27:49;24.00;96.60
2957;DHT22;1488;51.548;7.222;2023-08-07T14:30:16;24.00;96.60
2957;DHT22;1488;51.548;7.222;2023-08-07T14:32:43;24.10;96.70
2957;DHT22;1488;51.548;7.222;2023-08-07T14:35:13;24.00;97.00
2957;DHT22;1488;51.548;7.222;2023-08-07T14:37:40;24.10;96.60
2957;DHT22;1488;51.548;7.222;2023-08-07T14:40:08;24.00;96.60
2957;DHT22;1488;51.548;7.222;2023-08-07T14:42:35;24.00;96.50
2957;DHT22;1488;51.548;7.222;2023-08-07T14:45:05;24.00;96.50
2957;DHT22;1488;51.548;7.222;2023-08-07T14:47:32;24.00;96.50
2957;DHT22;1488;51.548;7.222;2023-08-07T14:49:59;24.10;96.60
2957;DHT22;1488;51.548;7.222;2023-08-07T14:52:27;24.00;96.90
2957;DHT22;1488;51.548;7.222;2023-08-07T14:54:54;24.10;96.50
2957;DHT22;1488;51.548;7.222;2023-08-07T14:57:22;24.00;96.40
2957;DHT22;1488;51.548;7.222;2023-08-07T14:59:49;24.00;96.40
2957;DHT22;1488;51.548;7.222;2023-08-07T15:02:16;24.00;96.40
2957;DHT22;1488;51.548;7.222;2023-08-07T15:04:43;24.00;96.40
2957;DHT22;1488;51.548;7.222;2023-08-07T15:07:10;24.00;96.40
2957;DHT22;1488;51.548;7.222;2023-08-07T15:09:38;24.00;96.30
2957;DHT22;1488;51.548;7.222;2023-08-07T15:12:05;24.10;96.30
2957;DHT22;1488;51.548;7.222;2023-08-07T15:14:33;24.00;96.20
2957;DHT22;1488;51.548;7.222;2023-08-07T15:16:59;24.00;96.30
2957;DHT22;1488;51.548;7.222;2023-08-07T15:19:26;24.00;96.20
2957;DHT22;1488;51.548;7.222;2023-08-07T15:21:53;24.00;96.30
2957;DHT22;1488;51.548;7.222;2023-08-07T15:24:20;24.00;96.20
2957;DHT22;1488;51.548;7.222;2023-08-07T15:26:48;24.00;96.20
2957;DHT22;1488;51.548;7.222;2023-08-07T15:29:15;24.00;96.20
2957;DHT22;1488;51.548;7.222;2023-08-07T15:31:42;24.00;96.00
2957;DHT22;1488;51.548;7.222;2023-08-07T15:34:08;24.00;96.00
2957;DHT22;1488;51.548;7.222;2023-08-07T15:36:35;24.00;96.10
2957;DHT22;1488;51.548;7.222;2023-08-07T15:39:02;24.00;96.10
2957;DHT22;1488;51.548;7.222;2023-08-07T15:41:29;24.00;96.00
2957;DHT22;1488;51.548;7.222;2023-08-07T15:43:57;24.00;96.10
2957;DHT22;1488;51.548;7.222;2023-08-07T15:46:24;24.00;96.00
2957;DHT22;1488;51.548;7.222;2023-08-07T15:48:51;24.00;96.00
2957;DHT22;1488;51.548;7.222;2023-08-07T15:51:18;24.00;96.00
2957;DHT22;1488;51.548;7.222;2023-08-07T15:53:45;24.00;96.10
2957;DHT22;1488;51.548;7.222;2023-08-07T15:56:12;24.00;96.00
2957;DHT22;1488;51.548;7.222;2023-08-07T15:58:38;24.00;96.00
2957;DHT22;1488;51.548;7.222;2023-08-07T16:01:07;24.00;96.00
2957;DHT22;1488;51.548;7.222;2023-08-07T16:03:33;24.00;96.00
2957;DHT22;1488;51.548;7.222;2023-08-07T16:06:01;24.00;95.80
2957;DHT22;1488;51.548;7.222;2023-08-07T16:08:28;24.00;95.90
2957;DHT22;1488;51.548;7.222;2023-08-07T16:10:55;24.00;95.80
2957;DHT22;1488;51.548;7.222;2023-08-07T16:13:22;24.00;95.80
2957;DHT22;1488;51.548;7.222;2023-08-07T16:15:49;24.00;95.80
2957;DHT22;1488;51.548;7.222;2023-08-07T16:18:17;24.00;95.90
2957;DHT22;1488;51.548;7.222;2023-08-07T16:20:44;24.00;96.00
2957;DHT22;1488;51.548;7.222;2023-08-07T16:23:10;24.00;95.90
2957;DHT22;1488;51.548;7.222;2023-08-07T16:25:37;24.00;95.90
2957;DHT22;1488;51.548;7.222;2023-08-07T16:28:05;24.00;95.90
2957;DHT22;1488;51.548;7.222;2023-08-07T16:30:32;24.00;95.90
2957;DHT22;1488;51.548;7.222;2023-08-07T16:32:59;24.00;96.00
2957;DHT22;1488;51.548;7.222;2023-08-07T16:35:27;24.00;95.90
2957;DHT22;1488;51.548;7.222;2023-08-07T16:37:54;24.00;96.00
2957;DHT22;1488;51.548;7.222;2023-08-07T16:40:21;24.00;96.00
2957;DHT22;1488;51.548;7.222;2023-08-07T16:42:48;24.00;96.00
2957;DHT22;1488;51.548;7.222;2023-08-07T16:45:15;24.00;96.10
2957;DHT22;1488;51.548;7.222;2023-08-07T16:47:42;24.00;96.00
2957;DHT22;1488;51.548;7.222;2023-08-07T16:50:09;24.00;96.00
2957;DHT22;1488;51.548;7.222;2023-08-07T16:52:37;24.00;96.00
2957;DHT22;1488;51.548;7.222;2023-08-07T16:55:05;24.00;96.00
2957;DHT22;1488;51.548;7.222;2023-08-07T16:57:32;24.00;96.00